sensor_id;sensor_type;location;lat;lon;timestamp;pressure;altitude;pressure_sealevel;temperature;humidity
72925;BME280;61070;50.794;7.054;2022-08-06T00:02:29;101847.31;;;16.49;62.36
72925;BME280;61070;50.794;7.054;2022-08-06T00:04:57;101847.47;;;16.40;62.55
72925;BME280;61070;50.794;7.054;2022-08-06T00:07:22;101857.25;;;16.41;62.66
72925;BME280;61070;50.794;7.054;2022-08-06T00:09:48;101848.38;;;16.39;62.53
72925;BME280;61070;50.794;7.054;2022-08-06T00:12:14;101847.56;;;16.36;62.56
72925;BME280;61070;50.794;7.054;2022-08-06T00:14:40;101845.88;;;16.28;62.57
72925;BME280;61070;50.794;7.054;2022-08-06T00:17:05;101846.84;;;16.24;63.05
72925;BME280;61070;50.794;7.054;2022-08-06T00:19:30;101854.06;;;16.21;63.18
72925;BME280;61070;50.794;7.054;2022-08-06T00:21:56;101859.47;;;16.15;63.64
72925;BME280;61070;50.794;7.054;2022-08-06T00:24:21;101856.78;;;16.16;63.73
72925;BME280;61070;50.794;7.054;2022-08-06T00:26:47;101854.19;;;16.12;63.64
72925;BME280;61070;50.794;7.054;2022-08-06T00:29:13;101863.16;;;16.08;63.65
72925;BME280;61070;50.794;7.054;2022-08-06T00:31:39;101864.00;;;16.11;63.54
72925;BME280;61070;50.794;7.054;2022-08-06T00:34:04;101866.84;;;16.00;63.80
72925;BME280;61070;50.794;7.054;2022-08-06T00:36:30;101871.28;;;16.01;63.32
72925;BME280;61070;50.794;7.054;2022-08-06T00:38:58;101869.56;;;15.97;63.44
72925;BME280;61070;50.794;7.054;2022-08-06T00:41:23;101867.84;;;15.93;63.35
72925;BME280;61070;50.794;7.054;2022-08-06T00:43:49;101867.91;;;15.89;63.18
72925;BME280;61070;50.794;7.054;2022-08-06T00:46:14;101871.56;;;15.83;63.88
72925;BME280;61070;50.794;7.054;2022-08-06T00:48:39;101872.56;;;15.76;64.57
72925;BME280;61070;50.794;7.054;2022-08-06T00:51:05;101879.69;;;15.74;64.83
72925;BME280;61070;50.794;7.054;2022-08-06T00:53:30;101877.09;;;15.69;64.73
72925;BME280;61070;50.794;7.054;2022-08-06T00:55:56;101878.94;;;15.66;65.30
72925;BME280;61070;50.794;7.054;2022-08-06T00:58:21;101877.19;;;15.62;65.62
72925;BME280;61070;50.794;7.054;2022-08-06T01:00:47;101874.59;;;15.56;65.86
72925;BME280;61070;50.794;7.054;2022-08-06T01:03:12;101875.56;;;15.49;65.74
72925;BME280;61070;50.794;7.054;2022-08-06T01:05:41;101887.19;;;15.44;66.09
72925;BME280;61070;50.794;7.054;2022-08-06T01:08:07;101883.69;;;15.39;66.13
72925;BME280;61070;50.794;7.054;2022-08-06T01:10:32;101887.28;;;15.38;66.09
72925;BME280;61070;50.794;7.054;2022-08-06T01:12:57;101883.75;;;15.35;66.46
72925;BME280;61070;50.794;7.054;2022-08-06T01:15:23;101883.84;;;15.27;66.19
72925;BME280;61070;50.794;7.054;2022-08-06T01:18:04;101884.81;;;15.22;66.28
72925;BME280;61070;50.794;7.054;2022-08-06T01:21:04;101890.22;;;15.15;66.78
72925;BME280;61070;50.794;7.054;2022-08-06T01:26:53;101893.88;;;15.08;66.65
72925;BME280;61070;50.794;7.054;2022-08-06T01:29:35;101892.16;;;15.01;66.86
72925;BME280;61070;50.794;7.054;2022-08-06T01:32:09;101888.59;;;15.02;66.53
72925;BME280;61070;50.794;7.054;2022-08-06T01:34:49;101896.59;;;15.04;66.13
72925;BME280;61070;50.794;7.054;2022-08-06T01:37:45;101893.16;;;14.91;66.32
72925;BME280;61070;50.794;7.054;2022-08-06T01:40:17;101895.03;;;14.84;66.29
72925;BME280;61070;50.794;7.054;2022-08-06T01:42:44;101895.03;;;14.81;66.47
72925;BME280;61070;50.794;7.054;2022-08-06T01:45:13;101898.66;;;14.76;66.63
72925;BME280;61070;50.794;7.054;2022-08-06T01:47:42;101903.94;;;14.82;66.50
72925;BME280;61070;50.794;7.054;2022-08-06T01:50:11;101899.50;;;14.81;66.23
72925;BME280;61070;50.794;7.054;2022-08-06T01:52:40;101910.28;;;14.69;66.78
72925;BME280;61070;50.794;7.054;2022-08-06T01:55:10;101900.53;;;14.66;66.91
72925;BME280;61070;50.794;7.054;2022-08-06T01:57:38;101900.38;;;14.84;66.05
72925;BME280;61070;50.794;7.054;2022-08-06T02:00:06;101910.41;;;14.55;67.31
72925;BME280;61070;50.794;7.054;2022-08-06T02:02:34;101912.19;;;14.56;67.27
72925;BME280;61070;50.794;7.054;2022-08-06T02:05:03;101913.13;;;14.52;67.43
72925;BME280;61070;50.794;7.054;2022-08-06T02:07:32;101916.66;;;14.54;67.53
72925;BME280;61070;50.794;7.054;2022-08-06T02:10:03;101922.91;;;14.48;67.50
72925;BME280;61070;50.794;7.054;2022-08-06T02:12:30;101926.50;;;14.46;68.02
72925;BME280;61070;50.794;7.054;2022-08-06T02:15:05;101919.41;;;14.39;68.21
72925;BME280;61070;50.794;7.054;2022-08-06T02:17:35;101916.75;;;14.39;68.08
72925;BME280;61070;50.794;7.054;2022-08-06T02:20:04;101918.56;;;14.34;68.22
72925;BME280;61070;50.794;7.054;2022-08-06T02:22:33;101919.44;;;14.34;68.08
72925;BME280;61070;50.794;7.054;2022-08-06T02:25:04;101924.78;;;14.34;68.26
72925;BME280;61070;50.794;7.054;2022-08-06T02:27:33;101921.28;;;14.29;68.07
72925;BME280;61070;50.794;7.054;2022-08-06T02:30:00;101926.63;;;14.23;68.49
72925;BME280;61070;50.794;7.054;2022-08-06T02:32:26;101925.63;;;14.36;67.62
72925;BME280;61070;50.794;7.054;2022-08-06T02:34:53;101929.28;;;14.23;68.29
72925;BME280;61070;50.794;7.054;2022-08-06T02:37:22;101935.56;;;14.17;68.50
72925;BME280;61070;50.794;7.054;2022-08-06T02:39:57;101933.81;;;14.16;68.91
72925;BME280;61070;50.794;7.054;2022-08-06T02:42:33;101933.81;;;14.16;69.15
72925;BME280;61070;50.794;7.054;2022-08-06T02:50:13;101946.25;;;14.11;69.03
72925;BME280;61070;50.794;7.054;2022-08-06T02:52:47;101952.50;;;14.04;69.14
72925;BME280;61070;50.794;7.054;2022-08-06T02:55:18;101950.78;;;13.97;69.87
72925;BME280;61070;50.794;7.054;2022-08-06T02:57:50;101945.50;;;13.89;69.94
72925;BME280;61070;50.794;7.054;2022-08-06T03:00:17;101949.94;;;13.87;70.11
72925;BME280;61070;50.794;7.054;2022-08-06T03:02:44;101952.63;;;13.86;70.19
72925;BME280;61070;50.794;7.054;2022-08-06T03:05:13;101957.09;;;13.84;70.34
72925;BME280;61070;50.794;7.054;2022-08-06T03:07:39;101948.16;;;13.89;69.86
72925;BME280;61070;50.794;7.054;2022-08-06T03:10:06;101956.22;;;13.76;70.71
72925;BME280;61070;50.794;7.054;2022-08-06T03:12:33;101967.75;;;13.82;70.33
72925;BME280;61070;50.794;7.054;2022-08-06T03:15:01;101965.13;;;13.68;70.92
72925;BME280;61070;50.794;7.054;2022-08-06T03:17:28;101960.75;;;13.61;71.30
72925;BME280;61070;50.794;7.054;2022-08-06T03:19:55;101962.53;;;13.59;71.39
72925;BME280;61070;50.794;7.054;2022-08-06T03:22:22;101965.22;;;13.50;71.96
72925;BME280;61070;50.794;7.054;2022-08-06T03:24:50;101967.88;;;13.46;71.85
72925;BME280;61070;50.794;7.054;2022-08-06T03:27:17;101973.22;;;13.44;72.01
72925;BME280;61070;50.794;7.054;2022-08-06T03:29:44;101969.69;;;13.40;72.44
72925;BME280;61070;50.794;7.054;2022-08-06T03:32:11;101961.69;;;13.36;72.13
72925;BME280;61070;50.794;7.054;2022-08-06T03:34:38;101961.72;;;13.30;72.37
72925;BME280;61070;50.794;7.054;2022-08-06T03:37:05;101965.28;;;13.24;72.70
72925;BME280;61070;50.794;7.054;2022-08-06T03:39:32;101974.16;;;13.20;72.83
72925;BME280;61070;50.794;7.054;2022-08-06T03:41:58;101975.03;;;13.15;73.00
72925;BME280;61070;50.794;7.054;2022-08-06T03:44:23;101973.25;;;13.17;72.90
72925;BME280;61070;50.794;7.054;2022-08-06T03:47:11;101977.69;;;13.08;73.28
72925;BME280;61070;50.794;7.054;2022-08-06T03:49:41;101984.78;;;13.12;73.20
72925;BME280;61070;50.794;7.054;2022-08-06T03:52:10;101974.13;;;13.12;73.03
72925;BME280;61070;50.794;7.054;2022-08-06T03:54:42;101976.81;;;13.06;73.33
72925;BME280;61070;50.794;7.054;2022-08-06T03:57:13;101979.50;;;12.97;73.61
72925;BME280;61070;50.794;7.054;2022-08-06T03:59:43;101981.25;;;12.98;73.62
72925;BME280;61070;50.794;7.054;2022-08-06T04:02:11;101991.03;;;13.05;73.65
72925;BME280;61070;50.794;7.054;2022-08-06T04:04:38;101991.91;;;13.04;73.84
72925;BME280;61070;50.794;7.054;2022-08-06T04:07:04;101988.38;;;13.02;73.60
72925;BME280;61070;50.794;7.054;2022-08-06T04:09:31;101992.78;;;12.97;73.69
72925;BME280;61070;50.794;7.054;2022-08-06T04:11:59;101989.25;;;12.98;73.72
72925;BME280;61070;50.794;7.054;2022-08-06T04:14:24;101998.13;;;12.93;73.95
72925;BME280;61070;50.794;7.054;2022-08-06T04:16:50;102003.44;;;12.91;74.06
72925;BME280;61070;50.794;7.054;2022-08-06T04:19:18;101995.44;;;12.90;74.52
72925;BME280;61070;50.794;7.054;2022-08-06T04:21:45;102002.56;;;12.95;74.19
72925;BME280;61070;50.794;7.054;2022-08-06T04:24:11;101998.13;;;12.91;74.09
72925;BME280;61070;50.794;7.054;2022-08-06T04:26:37;102012.31;;;12.93;74.36
72925;BME280;61070;50.794;7.054;2022-08-06T04:29:05;102011.41;;;12.94;73.85
72925;BME280;61070;50.794;7.054;2022-08-06T04:31:31;102010.53;;;12.92;74.07
72925;BME280;61070;50.794;7.054;2022-08-06T04:33:59;102015.84;;;12.92;74.03
72925;BME280;61070;50.794;7.054;2022-08-06T04:36:26;102014.06;;;13.00;73.56
72925;BME280;61070;50.794;7.054;2022-08-06T04:38:52;102013.19;;;13.06;73.65
72925;BME280;61070;50.794;7.054;2022-08-06T04:41:17;102021.16;;;13.06;73.42
72925;BME280;61070;50.794;7.054;2022-08-06T04:43:45;102032.66;;;13.12;73.49
72925;BME280;61070;50.794;7.054;2022-08-06T04:46:11;102020.28;;;13.21;72.72
72925;BME280;61070;50.794;7.054;2022-08-06T04:48:37;102025.56;;;13.11;72.81
72925;BME280;61070;50.794;7.054;2022-08-06T04:51:04;102024.69;;;13.12;72.79
72925;BME280;61070;50.794;7.054;2022-08-06T04:53:35;102020.28;;;13.24;72.39
72925;BME280;61070;50.794;7.054;2022-08-06T04:56:01;102030.03;;;13.25;72.26
72925;BME280;61070;50.794;7.054;2022-08-06T04:58:27;102038.91;;;13.16;72.50
72925;BME280;61070;50.794;7.054;2022-08-06T05:00:52;102033.56;;;13.16;72.28
72925;BME280;61070;50.794;7.054;2022-08-06T05:03:18;102040.69;;;13.23;72.21
72925;BME280;61070;50.794;7.054;2022-08-06T05:05:50;102032.72;;;13.26;72.46
72925;BME280;61070;50.794;7.054;2022-08-06T05:08:18;102039.78;;;13.29;72.25
72925;BME280;61070;50.794;7.054;2022-08-06T05:11:06;102045.09;;;13.35;71.95
72925;BME280;61070;50.794;7.054;2022-08-06T05:13:36;102048.66;;;13.34;72.03
72925;BME280;61070;50.794;7.054;2022-08-06T05:16:05;102053.09;;;13.38;72.22
72925;BME280;61070;50.794;7.054;2022-08-06T05:18:38;102051.28;;;13.45;71.83
72925;BME280;61070;50.794;7.054;2022-08-06T05:21:04;102057.50;;;13.51;71.89
72925;BME280;61070;50.794;7.054;2022-08-06T05:23:44;102058.38;;;13.46;71.66
72925;BME280;61070;50.794;7.054;2022-08-06T05:26:12;102061.94;;;13.49;71.56
72925;BME280;61070;50.794;7.054;2022-08-06T05:28:41;102066.34;;;13.55;71.33
72925;BME280;61070;50.794;7.054;2022-08-06T05:31:08;102079.66;;;13.64;71.56
72925;BME280;61070;50.794;7.054;2022-08-06T05:33:35;102070.75;;;13.69;71.15
72925;BME280;61070;50.794;7.054;2022-08-06T05:36:02;102080.56;;;13.57;71.64
72925;BME280;61070;50.794;7.054;2022-08-06T05:38:29;102087.66;;;13.61;71.46
72925;BME280;61070;50.794;7.054;2022-08-06T05:40:54;102089.41;;;13.74;70.91
72925;BME280;61070;50.794;7.054;2022-08-06T05:43:24;102088.47;;;13.89;70.35
72925;BME280;61070;50.794;7.054;2022-08-06T05:45:53;102087.59;;;13.87;70.91
72925;BME280;61070;50.794;7.054;2022-08-06T05:48:21;102094.69;;;13.94;70.23
72925;BME280;61070;50.794;7.054;2022-08-06T05:50:51;102090.19;;;14.01;70.20
72925;BME280;61070;50.794;7.054;2022-08-06T05:53:30;102094.56;;;14.18;69.88
72925;BME280;61070;50.794;7.054;2022-08-06T05:56:02;102088.38;;;14.16;69.53
72925;BME280;61070;50.794;7.054;2022-08-06T05:58:51;102091.91;;;14.12;69.62
72925;BME280;61070;50.794;7.054;2022-08-06T06:01:18;102085.69;;;14.13;69.83
72925;BME280;61070;50.794;7.054;2022-08-06T06:03:44;102092.75;;;14.23;69.74
72925;BME280;61070;50.794;7.054;2022-08-06T06:06:10;102087.41;;;14.33;69.29
72925;BME280;61070;50.794;7.054;2022-08-06T06:08:36;102090.03;;;14.45;68.97
72925;BME280;61070;50.794;7.054;2022-08-06T06:11:03;102095.34;;;14.46;68.60
72925;BME280;61070;50.794;7.054;2022-08-06T06:13:30;102093.53;;;14.54;68.41
72925;BME280;61070;50.794;7.054;2022-08-06T06:18:47;102096.06;;;14.77;67.93
72925;BME280;61070;50.794;7.054;2022-08-06T06:21:24;102090.69;;;14.80;68.24
72925;BME280;61070;50.794;7.054;2022-08-06T06:24:18;102092.50;;;14.77;68.17
72925;BME280;61070;50.794;7.054;2022-08-06T06:30:04;102106.56;;;14.99;68.27
72925;BME280;61070;50.794;7.054;2022-08-06T06:41:10;102109.00;;;15.31;67.45
72925;BME280;61070;50.794;7.054;2022-08-06T06:44:03;102112.28;;;15.57;66.69
72925;BME280;61070;50.794;7.054;2022-08-06T06:46:45;102113.09;;;15.70;65.76
72925;BME280;61070;50.794;7.054;2022-08-06T06:49:26;102111.34;;;15.67;65.20
72925;BME280;61070;50.794;7.054;2022-08-06T06:52:03;102115.59;;;15.87;64.94
72925;BME280;61070;50.794;7.054;2022-08-06T06:54:39;102111.78;;;16.06;64.34
72925;BME280;61070;50.794;7.054;2022-08-06T06:57:09;102121.63;;;16.02;64.38
72925;BME280;61070;50.794;7.054;2022-08-06T06:59:42;102125.19;;;16.05;63.57
72925;BME280;61070;50.794;7.054;2022-08-06T07:02:16;102128.75;;;16.04;64.14
72925;BME280;61070;50.794;7.054;2022-08-06T07:04:43;102124.19;;;16.13;64.10
72925;BME280;61070;50.794;7.054;2022-08-06T07:07:11;102126.69;;;16.27;64.14
72925;BME280;61070;50.794;7.054;2022-08-06T07:09:38;102130.13;;;16.38;63.81
72925;BME280;61070;50.794;7.054;2022-08-06T07:12:04;102136.25;;;16.46;63.18
72925;BME280;61070;50.794;7.054;2022-08-06T07:14:33;102133.50;;;16.51;63.16
72925;BME280;61070;50.794;7.054;2022-08-06T07:17:00;102138.03;;;16.47;61.89
72925;BME280;61070;50.794;7.054;2022-08-06T07:19:27;102142.41;;;16.54;62.49
72925;BME280;61070;50.794;7.054;2022-08-06T07:21:53;102137.03;;;16.53;62.67
72925;BME280;61070;50.794;7.054;2022-08-06T07:24:22;102141.44;;;16.58;62.48
72925;BME280;61070;50.794;7.054;2022-08-06T07:26:50;102154.63;;;16.74;62.21
72925;BME280;61070;50.794;7.054;2022-08-06T07:29:17;102145.72;;;16.73;61.69
72925;BME280;61070;50.794;7.054;2022-08-06T07:31:46;102152.03;;;16.66;62.32
72925;BME280;61070;50.794;7.054;2022-08-06T07:34:13;102143.91;;;16.75;61.83
72925;BME280;61070;50.794;7.054;2022-08-06T07:36:47;102143.81;;;16.83;61.06
72925;BME280;61070;50.794;7.054;2022-08-06T07:39:16;102147.13;;;16.99;61.41
72925;BME280;61070;50.794;7.054;2022-08-06T07:41:43;102139.94;;;17.02;60.55
72925;BME280;61070;50.794;7.054;2022-08-06T07:44:11;102142.69;;;16.99;60.79
72925;BME280;61070;50.794;7.054;2022-08-06T07:46:40;102143.03;;;17.32;60.01
72925;BME280;61070;50.794;7.054;2022-08-06T07:49:07;102140.63;;;17.15;60.11
72925;BME280;61070;50.794;7.054;2022-08-06T07:51:39;102131.22;;;17.45;59.47
72925;BME280;61070;50.794;7.054;2022-08-06T07:54:06;102124.78;;;17.54;59.58
72925;BME280;61070;50.794;7.054;2022-08-06T07:56:34;102126.28;;;17.71;58.13
72925;BME280;61070;50.794;7.054;2022-08-06T07:59:00;102137.63;;;17.35;58.03
72925;BME280;61070;50.794;7.054;2022-08-06T08:01:27;102125.16;;;17.32;58.59
72925;BME280;61070;50.794;7.054;2022-08-06T08:03:54;102126.50;;;17.59;58.47
72925;BME280;61070;50.794;7.054;2022-08-06T08:06:38;102118.34;;;17.64;57.43
72925;BME280;61070;50.794;7.054;2022-08-06T08:09:09;102130.41;;;17.91;56.67
72925;BME280;61070;50.794;7.054;2022-08-06T08:11:35;102131.53;;;17.78;57.59
72925;BME280;61070;50.794;7.054;2022-08-06T08:14:07;102126.38;;;18.12;54.25
72925;BME280;61070;50.794;7.054;2022-08-06T08:16:33;102131.34;;;18.31;54.85
72925;BME280;61070;50.794;7.054;2022-08-06T08:18:58;102128.22;;;18.53;53.84
72925;BME280;61070;50.794;7.054;2022-08-06T08:21:25;102131.28;;;18.76;52.72
72925;BME280;61070;50.794;7.054;2022-08-06T08:23:51;102127.34;;;18.91;52.01
72925;BME280;61070;50.794;7.054;2022-08-06T08:26:17;102131.22;;;19.18;52.04
72925;BME280;61070;50.794;7.054;2022-08-06T08:28:43;102130.41;;;19.50;51.51
72925;BME280;61070;50.794;7.054;2022-08-06T08:31:08;102130.34;;;19.52;51.14
72925;BME280;61070;50.794;7.054;2022-08-06T08:33:34;102136.41;;;19.26;48.45
72925;BME280;61070;50.794;7.054;2022-08-06T08:36:00;102127.97;;;18.65;49.51
72925;BME280;61070;50.794;7.054;2022-08-06T08:38:29;102122.22;;;18.40;51.55
72925;BME280;61070;50.794;7.054;2022-08-06T08:40:56;102132.38;;;18.69;51.64
72925;BME280;61070;50.794;7.054;2022-08-06T08:43:25;102132.81;;;18.88;51.04
72925;BME280;61070;50.794;7.054;2022-08-06T08:45:55;102129.16;;;18.50;50.21
72925;BME280;61070;50.794;7.054;2022-08-06T08:48:24;102127.97;;;18.63;50.90
72925;BME280;61070;50.794;7.054;2022-08-06T08:50:50;102123.00;;;18.47;50.00
72925;BME280;61070;50.794;7.054;2022-08-06T08:53:29;102120.03;;;18.17;49.70
72925;BME280;61070;50.794;7.054;2022-08-06T08:55:58;102123.22;;;18.34;49.52
72925;BME280;61070;50.794;7.054;2022-08-06T08:58:25;102123.06;;;18.84;48.62
72925;BME280;61070;50.794;7.054;2022-08-06T09:00:51;102122.44;;;19.10;47.33
72925;BME280;61070;50.794;7.054;2022-08-06T09:03:17;102114.50;;;19.41;46.47
72925;BME280;61070;50.794;7.054;2022-08-06T09:05:42;102122.09;;;19.59;46.01
72925;BME280;61070;50.794;7.054;2022-08-06T09:08:09;102115.78;;;19.93;45.09
72925;BME280;61070;50.794;7.054;2022-08-06T09:10:35;102111.72;;;20.11;45.15
72925;BME280;61070;50.794;7.054;2022-08-06T09:13:02;102124.03;;;20.19;45.11
72925;BME280;61070;50.794;7.054;2022-08-06T09:15:27;102123.22;;;20.47;44.53
72925;BME280;61070;50.794;7.054;2022-08-06T09:17:53;102121.91;;;19.99;42.88
72925;BME280;61070;50.794;7.054;2022-08-06T09:20:19;102124.25;;;19.79;42.66
72925;BME280;61070;50.794;7.054;2022-08-06T09:22:44;102117.75;;;19.55;44.15
72925;BME280;61070;50.794;7.054;2022-08-06T09:25:45;102129.66;;;19.43;45.72
72925;BME280;61070;50.794;7.054;2022-08-06T09:28:31;102121.19;;;19.60;45.34
72925;BME280;61070;50.794;7.054;2022-08-06T09:31:09;102119.72;;;19.81;43.96
72925;BME280;61070;50.794;7.054;2022-08-06T09:33:42;102124.06;;;19.87;43.86
72925;BME280;61070;50.794;7.054;2022-08-06T09:36:13;102131.28;;;19.51;45.16
72925;BME280;61070;50.794;7.054;2022-08-06T09:39:05;102137.19;;;19.29;45.28
72925;BME280;61070;50.794;7.054;2022-08-06T09:41:30;102129.75;;;19.40;45.83
72925;BME280;61070;50.794;7.054;2022-08-06T09:43:57;102130.34;;;19.52;45.31
72925;BME280;61070;50.794;7.054;2022-08-06T09:49:08;102127.75;;;19.48;45.56
72925;BME280;61070;50.794;7.054;2022-08-06T09:51:34;102127.69;;;19.16;46.08
72925;BME280;61070;50.794;7.054;2022-08-06T09:54:02;102121.81;;;19.34;45.00
72925;BME280;61070;50.794;7.054;2022-08-06T09:56:28;102123.28;;;19.83;43.86
72925;BME280;61070;50.794;7.054;2022-08-06T09:59:02;102129.00;;;20.33;42.25
72925;BME280;61070;50.794;7.054;2022-08-06T10:01:29;102117.25;;;20.67;40.13
72925;BME280;61070;50.794;7.054;2022-08-06T10:03:57;102119.84;;;20.70;40.10
72925;BME280;61070;50.794;7.054;2022-08-06T10:06:24;102118.13;;;20.67;39.49
72925;BME280;61070;50.794;7.054;2022-08-06T10:09:05;102121.66;;;20.97;38.58
72925;BME280;61070;50.794;7.054;2022-08-06T10:11:36;102117.72;;;21.35;39.59
72925;BME280;61070;50.794;7.054;2022-08-06T10:14:01;102112.41;;;21.84;38.48
72925;BME280;61070;50.794;7.054;2022-08-06T10:16:27;102117.94;;;21.80;37.33
72925;BME280;61070;50.794;7.054;2022-08-06T10:18:53;102109.31;;;21.94;38.40
72925;BME280;61070;50.794;7.054;2022-08-06T10:21:21;102109.25;;;21.96;37.88
72925;BME280;61070;50.794;7.054;2022-08-06T10:23:52;102116.50;;;21.70;38.20
72925;BME280;61070;50.794;7.054;2022-08-06T10:26:32;102113.75;;;21.72;38.98
72925;BME280;61070;50.794;7.054;2022-08-06T10:29:03;102117.06;;;21.80;37.04
72925;BME280;61070;50.794;7.054;2022-08-06T10:31:29;102118.09;;;21.76;38.35
72925;BME280;61070;50.794;7.054;2022-08-06T10:36:48;102101.97;;;22.70;36.87
72925;BME280;61070;50.794;7.054;2022-08-06T10:39:22;102105.44;;;22.50;35.68
72925;BME280;61070;50.794;7.054;2022-08-06T10:41:51;102100.81;;;22.75;36.32
72925;BME280;61070;50.794;7.054;2022-08-06T10:44:16;102109.56;;;23.05;35.01
72925;BME280;61070;50.794;7.054;2022-08-06T10:46:42;102111.16;;;22.87;35.22
72925;BME280;61070;50.794;7.054;2022-08-06T10:49:08;102099.38;;;22.90;36.52
72925;BME280;61070;50.794;7.054;2022-08-06T10:51:36;102099.59;;;22.15;38.18
72925;BME280;61070;50.794;7.054;2022-08-06T10:54:02;102096.94;;;22.60;37.63
72925;BME280;61070;50.794;7.054;2022-08-06T10:56:28;102098.91;;;22.33;38.13
72925;BME280;61070;50.794;7.054;2022-08-06T10:58:54;102097.28;;;21.79;38.25
72925;BME280;61070;50.794;7.054;2022-08-06T11:01:30;102099.81;;;21.59;38.46
72925;BME280;61070;50.794;7.054;2022-08-06T11:07:16;102086.69;;;21.73;38.26
72925;BME280;61070;50.794;7.054;2022-08-06T11:12:52;102076.94;;;22.19;36.69
72925;BME280;61070;50.794;7.054;2022-08-06T11:15:20;102081.69;;;22.13;37.21
72925;BME280;61070;50.794;7.054;2022-08-06T11:17:51;102083.91;;;22.48;37.15
72925;BME280;61070;50.794;7.054;2022-08-06T11:23:01;102071.84;;;21.62;37.81
72925;BME280;61070;50.794;7.054;2022-08-06T11:28:01;102075.38;;;21.89;35.08
72925;BME280;61070;50.794;7.054;2022-08-06T11:30:56;102069.75;;;22.42;35.64
72925;BME280;61070;50.794;7.054;2022-08-06T11:35:57;102056.81;;;23.37;32.82
72925;BME280;61070;50.794;7.054;2022-08-06T11:51:45;102065.78;;;21.80;35.60
72925;BME280;61070;50.794;7.054;2022-08-06T11:54:30;102067.38;;;22.11;34.96
72925;BME280;61070;50.794;7.054;2022-08-06T11:59:25;102064.00;;;22.73;34.13
72925;BME280;61070;50.794;7.054;2022-08-06T12:01:51;102054.09;;;23.17;33.77
72925;BME280;61070;50.794;7.054;2022-08-06T12:07:39;102062.84;;;22.80;33.12
72925;BME280;61070;50.794;7.054;2022-08-06T12:09:57;102049.16;;;23.27;31.94
72925;BME280;61070;50.794;7.054;2022-08-06T12:14:53;102053.28;;;24.35;30.62
72925;BME280;61070;50.794;7.054;2022-08-06T12:17:19;102048.28;;;23.87;30.07
72925;BME280;61070;50.794;7.054;2022-08-06T12:19:46;102043.53;;;24.31;29.82
72925;BME280;61070;50.794;7.054;2022-08-06T12:22:13;102037.16;;;24.51;29.23
72925;BME280;61070;50.794;7.054;2022-08-06T12:24:42;102034.56;;;23.51;31.81
72925;BME280;61070;50.794;7.054;2022-08-06T12:27:09;102037.06;;;22.71;32.57
72925;BME280;61070;50.794;7.054;2022-08-06T12:29:35;102034.56;;;22.21;33.45
72925;BME280;61070;50.794;7.054;2022-08-06T12:32:01;102033.81;;;21.93;34.27
72925;BME280;61070;50.794;7.054;2022-08-06T12:34:27;102028.91;;;22.27;32.93
72925;BME280;61070;50.794;7.054;2022-08-06T12:36:53;102029.91;;;22.70;32.37
72925;BME280;61070;50.794;7.054;2022-08-06T12:39:19;102020.06;;;23.32;31.74
72925;BME280;61070;50.794;7.054;2022-08-06T12:41:45;102014.75;;;23.71;30.99
72925;BME280;61070;50.794;7.054;2022-08-06T12:44:11;102018.09;;;23.96;30.71
72925;BME280;61070;50.794;7.054;2022-08-06T12:46:37;102016.06;;;24.01;30.75
72925;BME280;61070;50.794;7.054;2022-08-06T12:49:02;102018.59;;;23.65;31.03
72925;BME280;61070;50.794;7.054;2022-08-06T12:51:28;102014.72;;;23.10;31.65
72925;BME280;61070;50.794;7.054;2022-08-06T12:53:59;102012.75;;;22.93;32.11
72925;BME280;61070;50.794;7.054;2022-08-06T12:56:25;102010.63;;;22.79;32.39
72925;BME280;61070;50.794;7.054;2022-08-06T12:58:51;102014.22;;;23.22;31.39
72925;BME280;61070;50.794;7.054;2022-08-06T13:01:20;102003.69;;;22.94;30.14
72925;BME280;61070;50.794;7.054;2022-08-06T13:03:48;102010.09;;;23.13;30.85
72925;BME280;61070;50.794;7.054;2022-08-06T13:06:16;102001.84;;;23.16;30.93
72925;BME280;61070;50.794;7.054;2022-08-06T13:08:45;102006.34;;;23.77;30.42
72925;BME280;61070;50.794;7.054;2022-08-06T13:11:11;102004.41;;;23.80;30.47
72925;BME280;61070;50.794;7.054;2022-08-06T13:13:50;102001.88;;;23.76;30.76
72925;BME280;61070;50.794;7.054;2022-08-06T13:16:16;101998.34;;;23.94;30.71
72925;BME280;61070;50.794;7.054;2022-08-06T13:18:43;101987.69;;;23.71;31.03
72925;BME280;61070;50.794;7.054;2022-08-06T13:21:28;101992.91;;;24.51;29.83
72925;BME280;61070;50.794;7.054;2022-08-06T13:23:53;101999.16;;;24.34;30.15
72925;BME280;61070;50.794;7.054;2022-08-06T13:26:26;101993.28;;;24.24;29.62
72925;BME280;61070;50.794;7.054;2022-08-06T13:29:09;101994.53;;;23.79;30.59
72925;BME280;61070;50.794;7.054;2022-08-06T13:31:35;101989.53;;;24.08;29.33
72925;BME280;61070;50.794;7.054;2022-08-06T13:34:03;101980.09;;;24.54;28.52
72925;BME280;61070;50.794;7.054;2022-08-06T13:36:30;101981.09;;;24.88;28.18
72925;BME280;61070;50.794;7.054;2022-08-06T13:38:56;101990.56;;;24.79;28.96
72925;BME280;61070;50.794;7.054;2022-08-06T13:41:27;101973.09;;;24.67;29.39
72925;BME280;61070;50.794;7.054;2022-08-06T13:43:52;101977.47;;;25.06;29.18
72925;BME280;61070;50.794;7.054;2022-08-06T13:46:19;101986.81;;;23.89;30.28
72925;BME280;61070;50.794;7.054;2022-08-06T13:48:47;101978.97;;;23.03;31.22
72925;BME280;61070;50.794;7.054;2022-08-06T13:51:13;101981.75;;;22.80;32.32
72925;BME280;61070;50.794;7.054;2022-08-06T13:53:39;101975.47;;;22.79;32.75
72925;BME280;61070;50.794;7.054;2022-08-06T13:56:04;101977.41;;;22.98;31.99
72925;BME280;61070;50.794;7.054;2022-08-06T13:58:30;101973.06;;;23.54;30.60
72925;BME280;61070;50.794;7.054;2022-08-06T14:00:56;101975.81;;;24.13;30.17
72925;BME280;61070;50.794;7.054;2022-08-06T14:03:21;101970.59;;;24.27;29.63
72925;BME280;61070;50.794;7.054;2022-08-06T14:05:46;101963.31;;;24.82;29.24